createdAt,value
2019-02-02T00:01:13.678Z,11.97
2019-02-02T00:06:17.064Z,10.67
2019-02-02T00:11:21.655Z,11.17
2019-02-02T00:16:25.027Z,11.13
2019-02-02T00:21:28.488Z,11.03
2019-02-02T00:26:32.257Z,11.83
2019-02-02T00:31:35.551Z,9.27
2019-02-02T00:36:39.141Z,9.13
2019-02-02T00:41:42.536Z,8.63
2019-02-02T00:46:46.187Z,10.30
2019-02-02T00:51:49.721Z,9.90
2019-02-02T00:56:53.104Z,10.33
2019-02-02T01:01:56.833Z,11.10
2019-02-02T01:07:00.241Z,9.00
2019-02-02T01:12:03.676Z,9.67
2019-02-02T01:17:07.333Z,11.10
2019-02-02T01:22:10.757Z,8.20
2019-02-02T01:27:14.200Z,9.40
2019-02-02T01:32:17.669Z,8.93
2019-02-02T01:37:21.085Z,11.20
2019-02-02T01:42:24.500Z,10.57
2019-02-02T01:47:28.064Z,12.43
2019-02-02T01:52:31.585Z,8.57
2019-02-02T01:57:35.025Z,8.10
2019-02-02T02:02:38.480Z,9.23
2019-02-02T02:07:42.416Z,9.03
2019-02-02T02:12:45.964Z,10.10
2019-02-02T02:17:49.438Z,12.20
2019-02-02T02:22:53.435Z,7.90
2019-02-02T02:27:57.038Z,10.37
2019-02-02T02:33:00.658Z,11.20
2019-02-02T02:38:04.065Z,9.93
2019-02-02T02:43:07.707Z,9.63
2019-02-02T02:48:11.162Z,8.47
2019-02-02T02:53:14.731Z,9.10
2019-02-02T02:58:18.323Z,11.40
2019-02-02T03:03:21.939Z,12.03
2019-02-02T03:08:25.536Z,8.33
2019-02-02T03:13:29.091Z,9.33
2019-02-02T03:18:32.662Z,8.20
2019-02-02T03:23:36.408Z,9.70
2019-02-02T03:28:39.806Z,9.80
2019-02-02T03:33:43.430Z,11.47
2019-02-02T03:38:46.886Z,10.13
2019-02-02T03:43:50.454Z,10.13
2019-02-02T03:48:53.836Z,9.75
2019-02-02T03:54:08.259Z,10.80
2019-02-02T03:59:06.735Z,10.43
2019-02-02T04:04:04.333Z,8.30
2019-02-02T04:09:08.121Z,9.80
2019-02-02T04:14:11.619Z,11.27
2019-02-02T04:19:15.165Z,8.67
2019-02-02T04:24:18.670Z,9.40
2019-02-02T04:29:22.364Z,9.10
2019-02-02T04:34:25.928Z,10.97
2019-02-02T04:39:29.434Z,8.37
2019-02-02T04:44:32.922Z,9.83
2019-02-02T04:49:36.460Z,8.20
2019-02-02T04:54:39.972Z,10.70
2019-02-02T04:59:43.380Z,8.73
2019-02-02T05:04:46.744Z,10.20
2019-02-02T05:09:50.341Z,9.40
2019-02-02T05:14:53.801Z,10.50
2019-02-02T05:19:57.186Z,9.70
2019-02-02T05:25:00.570Z,11.53
2019-02-02T05:30:04.553Z,11.23
2019-02-02T05:35:08.541Z,10.30
2019-02-02T05:40:13.536Z,9.27
2019-02-02T05:45:18.193Z,9.17
2019-02-02T05:50:23.163Z,10.27
2019-02-02T05:55:26.545Z,10.03
2019-02-02T06:00:47.948Z,11.50
2019-02-02T06:05:51.348Z,10.93
2019-02-02T06:10:54.704Z,11.87
2019-02-02T06:15:58.117Z,12.03
2019-02-02T06:21:01.544Z,8.73
2019-02-02T06:26:04.954Z,11.67
2019-02-02T06:31:08.355Z,10.47
2019-02-02T06:36:11.740Z,12.13
2019-02-02T06:41:15.134Z,14.97
2019-02-02T06:46:18.591Z,9.27
2019-02-02T06:51:21.963Z,8.20
2019-02-02T06:56:25.380Z,10.90
2019-02-02T07:01:29.030Z,8.63
2019-02-02T07:06:32.481Z,8.73
2019-02-02T07:11:35.868Z,9.08
2019-02-02T07:16:39.300Z,9.83
2019-02-02T07:21:42.797Z,9.77
2019-02-02T07:26:46.202Z,11.80
2019-02-02T07:31:49.758Z,10.07
2019-02-02T07:36:53.146Z,10.33
2019-02-02T07:41:56.686Z,11.07
2019-02-02T07:47:00.050Z,9.97
2019-02-02T07:52:03.660Z,10.93
2019-02-02T07:57:07.040Z,8.73
2019-02-02T08:02:10.461Z,11.70
2019-02-02T08:07:13.832Z,10.17
2019-02-02T08:12:19.474Z,9.87
2019-02-02T08:17:20.649Z,12.03
2019-02-02T08:22:24.046Z,11.33
2019-02-02T08:27:27.441Z,10.30
2019-02-02T08:32:30.848Z,11.33
2019-02-02T08:37:34.344Z,13.83
2019-02-02T08:42:37.764Z,11.83
2019-02-02T08:47:41.416Z,13.63
2019-02-02T08:52:44.818Z,13.13
2019-02-02T08:57:48.415Z,11.90
2019-02-02T09:02:52.082Z,10.43
2019-02-02T09:07:55.644Z,11.10
2019-02-02T09:12:59.156Z,12.03
2019-02-02T09:18:02.740Z,12.57
2019-02-02T09:23:06.827Z,9.68
2019-02-02T09:28:09.702Z,11.37
2019-02-02T09:33:13.109Z,10.67
2019-02-02T09:38:16.662Z,12.47
2019-02-02T09:43:20.061Z,10.10
2019-02-02T09:48:23.556Z,11.80
2019-02-02T09:53:26.997Z,12.33
2019-02-02T09:58:30.617Z,12.43
2019-02-02T10:03:33.987Z,9.70
2019-02-02T10:08:37.667Z,12.67
2019-02-02T10:13:41.156Z,11.50
2019-02-02T10:18:44.531Z,11.07
2019-02-02T10:23:48.069Z,13.33
2019-02-02T10:28:51.502Z,12.33
2019-02-02T10:33:55.096Z,11.37
2019-02-02T10:38:59.820Z,11.37
2019-02-02T10:44:03.317Z,9.67
2019-02-02T10:49:07.005Z,9.90
2019-02-02T10:54:10.402Z,9.50
2019-02-02T10:59:13.977Z,10.37
2019-02-02T11:04:17.566Z,10.35
2019-02-02T11:09:21.108Z,13.23
2019-02-02T11:14:24.694Z,9.73
2019-02-02T11:19:28.351Z,9.10
2019-02-02T11:24:31.841Z,10.17
2019-02-02T11:29:35.356Z,12.63
2019-02-02T11:34:39.934Z,11.90
2019-02-02T11:39:43.329Z,11.20
2019-02-02T11:44:47.013Z,11.43
2019-02-02T11:49:50.438Z,11.07
2019-02-02T11:54:54.031Z,11.13
2019-02-02T11:59:57.528Z,15.47
2019-02-02T12:05:01.030Z,32.33
2019-02-02T12:10:04.983Z,15.33
2019-02-02T12:15:10.372Z,16.57
2019-02-02T12:20:15.466Z,11.77
2019-02-02T12:25:19.033Z,12.53
2019-02-02T12:30:26.137Z,10.80
2019-02-02T12:35:29.881Z,13.77
2019-02-02T12:40:33.524Z,14.80
2019-02-02T12:45:45.613Z,11.73
2019-02-02T12:50:49.134Z,12.93
2019-02-02T12:55:52.768Z,11.13
2019-02-02T13:00:56.334Z,13.73
2019-02-02T13:06:00.056Z,11.12
2019-02-02T13:11:04.205Z,11.37
2019-02-02T13:16:07.688Z,11.43
2019-02-02T13:21:11.444Z,13.37
2019-02-02T13:26:14.958Z,12.93
2019-02-02T13:31:20.871Z,12.50
2019-02-02T13:36:22.432Z,13.87
2019-02-02T13:41:26.148Z,12.70
2019-02-02T13:46:29.694Z,11.87
2019-02-02T13:51:33.413Z,12.87
2019-02-02T13:56:37.148Z,13.70
2019-02-02T14:01:42.400Z,11.43
2019-02-02T14:06:44.671Z,11.73
2019-02-02T14:11:48.211Z,13.50
2019-02-02T14:16:53.527Z,14.10
2019-02-02T14:21:58.245Z,11.33
2019-02-02T14:27:01.861Z,12.63
2019-02-02T14:32:05.642Z,11.47
2019-02-02T14:37:09.434Z,12.10
2019-02-02T14:42:13.405Z,12.67
2019-02-02T14:47:16.993Z,13.67
2019-02-02T14:52:20.767Z,12.83
2019-02-02T14:57:24.394Z,12.90
2019-02-02T15:02:28.031Z,14.27
2019-02-02T15:07:31.709Z,12.63
2019-02-02T15:12:37.090Z,13.80
2019-02-02T15:17:39.094Z,14.30
2019-02-02T15:22:43.100Z,14.80
2019-02-02T15:27:46.900Z,13.20
2019-02-02T15:32:50.812Z,12.37
2019-02-02T15:37:56.221Z,11.70
2019-02-02T15:43:05.674Z,11.17
2019-02-02T15:48:12.662Z,15.40
2019-02-02T15:53:16.264Z,15.47
2019-02-02T15:58:19.933Z,17.90
2019-02-02T16:03:23.760Z,14.87
2019-02-02T16:08:27.482Z,15.20
2019-02-02T16:13:31.179Z,14.05
2019-02-02T16:18:34.807Z,17.50
2019-02-02T16:23:38.809Z,18.13
2019-02-02T16:28:42.507Z,15.10
2019-02-02T16:33:46.295Z,21.05
2019-02-02T16:38:49.859Z,15.57
2019-02-02T16:43:53.388Z,18.40
2019-02-02T16:48:57.017Z,18.83
2019-02-02T16:54:00.552Z,16.13
2019-02-02T16:59:06.303Z,14.65
2019-02-02T17:04:15.972Z,14.13
2019-02-02T17:09:14.128Z,14.63
2019-02-02T17:14:17.967Z,16.07
2019-02-02T17:19:20.748Z,17.00
2019-02-02T17:24:24.423Z,19.13
2019-02-02T17:29:27.997Z,18.63
2019-02-02T17:34:31.678Z,16.47
2019-02-02T17:39:35.260Z,15.73
2019-02-02T17:44:38.789Z,15.33
2019-02-02T17:49:42.332Z,14.27
2019-02-02T17:54:45.889Z,17.07
2019-02-02T17:59:49.474Z,16.10
2019-02-02T18:04:53.511Z,15.30
2019-02-02T18:09:56.884Z,15.20
2019-02-02T18:15:00.534Z,16.70
2019-02-02T18:20:05.097Z,17.83
2019-02-02T18:25:10.238Z,15.03
2019-02-02T18:30:16.955Z,13.53
2019-02-02T18:35:20.868Z,13.97
2019-02-02T18:40:25.142Z,15.30
2019-02-02T18:45:28.837Z,15.10
2019-02-02T18:50:32.560Z,14.13
2019-02-02T18:55:40.002Z,16.87
2019-02-02T19:00:44.204Z,13.90
2019-02-02T19:05:47.804Z,12.37
2019-02-02T19:10:51.528Z,12.93
2019-02-02T19:15:55.365Z,13.13
2019-02-02T19:20:59.067Z,12.57
2019-02-02T19:26:03.112Z,16.37
2019-02-02T19:31:06.655Z,14.47
2019-02-02T19:36:10.167Z,22.10
2019-02-02T19:41:13.816Z,19.27
2019-02-02T19:46:17.458Z,21.53
2019-02-02T19:51:21.105Z,19.63
2019-02-02T19:56:24.873Z,13.70
2019-02-02T20:01:29.473Z,12.28
2019-02-02T20:06:34.004Z,15.37
2019-02-02T20:11:37.796Z,13.97
2019-02-02T20:16:41.605Z,12.40
2019-02-02T20:21:45.453Z,13.88
2019-02-02T20:26:49.230Z,15.77
2019-02-02T20:31:52.875Z,15.80
2019-02-02T20:36:56.701Z,10.93
2019-02-02T20:42:00.639Z,13.15
2019-02-02T20:47:04.301Z,11.77
2019-02-02T20:52:07.864Z,12.37
2019-02-02T20:57:11.727Z,11.63
2019-02-02T21:02:15.412Z,10.77
2019-02-02T21:07:19.190Z,10.90
2019-02-02T21:12:22.887Z,11.17
2019-02-02T21:17:26.659Z,11.13
2019-02-02T21:22:30.271Z,10.47
2019-02-02T21:27:33.808Z,9.87
2019-02-02T21:32:37.458Z,9.23
2019-02-02T21:37:40.949Z,8.40
2019-02-02T21:42:44.442Z,9.23
2019-02-02T21:47:47.926Z,11.23
2019-02-02T21:52:52.110Z,9.03
2019-02-02T21:57:55.687Z,10.03
2019-02-02T22:02:59.264Z,11.83
2019-02-02T22:08:02.734Z,9.60
2019-02-02T22:13:06.908Z,9.57
2019-02-02T22:18:10.433Z,10.10
2019-02-02T22:23:14.435Z,9.77
2019-02-02T22:28:18.267Z,11.03
2019-02-02T22:33:22.088Z,11.20
2019-02-02T22:38:25.737Z,8.23
2019-02-02T22:43:29.687Z,7.20
2019-02-02T22:48:33.741Z,8.50
2019-02-02T22:53:37.683Z,11.23
2019-02-02T22:58:41.536Z,10.83
2019-02-02T23:03:49.752Z,10.17
2019-02-02T23:09:05.704Z,9.80
2019-02-02T23:14:40.743Z,10.33
2019-02-02T23:19:41.993Z,8.00
2019-02-02T23:24:45.634Z,10.07
2019-02-02T23:29:49.271Z,10.47
2019-02-02T23:34:52.862Z,8.40
2019-02-02T23:39:56.411Z,9.23
2019-02-02T23:44:59.974Z,10.73
2019-02-02T23:50:03.673Z,7.37
2019-02-02T23:55:07.160Z,8.87
